createdAt,value
2023-02-11T00:00:43.462Z,3.81
2023-02-11T00:03:46.164Z,3.83
2023-02-11T00:06:47.539Z,3.87
2023-02-11T00:09:50.771Z,3.86
2023-02-11T00:12:52.075Z,3.82
2023-02-11T00:15:55.870Z,3.81
2023-02-11T00:18:59.130Z,3.96
2023-02-11T00:22:01.685Z,3.97
2023-02-11T00:25:05.442Z,4.04
2023-02-11T00:28:06.890Z,3.99
2023-02-11T00:31:09.740Z,4.06
2023-02-11T00:34:11.108Z,4.06
2023-02-11T00:37:12.901Z,4.16
2023-02-11T00:40:16.562Z,4.09
2023-02-11T00:43:17.899Z,4.12
2023-02-11T00:46:21.002Z,4.30
2023-02-11T00:52:44.290Z,4.33
2023-02-11T00:55:47.670Z,4.36
2023-02-11T00:58:49.303Z,4.35
2023-02-11T01:01:51.844Z,4.43
2023-02-11T01:04:54.555Z,4.65
2023-02-11T01:07:55.943Z,4.49
2023-02-11T01:11:00.226Z,4.49
2023-02-11T01:14:02.019Z,4.59
2023-02-11T01:17:06.243Z,4.55
2023-02-11T01:20:14.605Z,4.63
2023-02-11T01:23:17.163Z,4.75
2023-02-11T01:26:20.604Z,4.59
2023-02-11T01:29:21.878Z,4.62
2023-02-11T01:32:24.478Z,4.73
2023-02-11T01:35:25.739Z,4.72
2023-02-11T01:38:28.255Z,4.83
2023-02-11T01:41:31.630Z,4.79
2023-02-11T01:44:35.618Z,4.77
2023-02-11T01:47:38.181Z,4.74
2023-02-11T01:50:42.596Z,4.77
2023-02-11T01:54:05.710Z,4.86
2023-02-11T01:57:25.393Z,4.76
2023-02-11T02:00:31.792Z,4.76
2023-02-11T02:03:37.389Z,4.80
2023-02-11T02:06:48.725Z,4.82
2023-02-11T02:09:59.661Z,4.90
2023-02-11T02:13:01.606Z,4.87
2023-02-11T02:16:09.483Z,4.88
2023-02-11T02:19:57.048Z,4.80
2023-02-11T02:23:31.552Z,4.86
2023-02-11T02:26:53.738Z,4.82
2023-02-11T02:30:13.090Z,4.90
2023-02-11T02:33:37.365Z,4.85
2023-02-11T02:36:46.361Z,4.78
2023-02-11T02:39:50.018Z,4.83
2023-02-11T02:42:54.654Z,4.84
2023-02-11T02:46:08.633Z,4.85
2023-02-11T02:49:14.619Z,4.81
2023-02-11T02:52:29.273Z,4.74
2023-02-11T02:55:41.185Z,4.64
2023-02-11T02:58:55.993Z,4.84
2023-02-11T03:02:08.387Z,4.82
2023-02-11T03:05:19.439Z,4.79
2023-02-11T03:08:27.838Z,4.85
2023-02-11T03:11:30.493Z,4.91
2023-02-11T03:14:34.614Z,4.79
2023-02-11T03:17:39.104Z,4.88
2023-02-11T03:20:45.434Z,4.86
2023-02-11T03:23:51.152Z,4.78
2023-02-11T03:26:55.653Z,4.92
2023-02-11T03:33:33.317Z,4.93
2023-02-11T03:40:11.025Z,4.93
2023-02-11T03:43:17.280Z,4.88
2023-02-11T03:46:24.619Z,4.81
2023-02-11T03:49:27.200Z,4.84
2023-02-11T03:52:31.509Z,4.91
2023-02-11T03:55:37.743Z,4.91
2023-02-11T03:58:39.026Z,4.98
2023-02-11T04:01:41.886Z,4.95
2023-02-11T04:04:43.668Z,4.90
2023-02-11T04:07:46.855Z,4.95
2023-02-11T04:10:48.143Z,4.86
2023-02-11T04:13:50.733Z,4.98
2023-02-11T04:16:53.251Z,5.00
2023-02-11T04:19:54.610Z,5.04
2023-02-11T04:22:57.807Z,5.16
2023-02-11T04:25:59.197Z,5.06
2023-02-11T04:29:01.740Z,5.14
2023-02-11T04:32:04.466Z,5.13
2023-02-11T04:35:06.496Z,5.13
2023-02-11T04:38:09.707Z,5.14
2023-02-11T04:41:11.034Z,5.03
2023-02-11T04:44:13.692Z,5.16
2023-02-11T04:47:16.350Z,5.04
2023-02-11T04:50:17.916Z,5.04
2023-02-11T04:53:21.229Z,5.01
2023-02-11T04:56:22.613Z,4.99
2023-02-11T04:59:25.500Z,5.11
2023-02-11T05:02:28.225Z,4.99
2023-02-11T05:05:29.512Z,5.01
2023-02-11T05:08:33.335Z,5.05
2023-02-11T05:11:35.914Z,5.08
2023-02-11T05:14:38.424Z,5.20
2023-02-11T05:17:40.960Z,5.23
2023-02-11T05:20:43.225Z,5.20
2023-02-11T05:23:47.106Z,5.05
2023-02-11T05:26:48.402Z,5.22
2023-02-11T05:29:50.994Z,5.26
2023-02-11T05:32:52.308Z,5.20
2023-02-11T05:35:58.257Z,5.18
2023-02-11T05:39:00.213Z,5.07
2023-02-11T05:42:02.786Z,5.16
2023-02-11T05:45:05.878Z,5.27
2023-02-11T05:51:29.348Z,5.17
2023-02-11T05:54:33.660Z,5.19
2023-02-11T05:57:36.373Z,5.20
2023-02-11T06:00:39.111Z,5.35
2023-02-11T06:03:40.466Z,5.33
2023-02-11T06:06:43.009Z,5.20
2023-02-11T06:09:45.060Z,5.25
2023-02-11T06:12:47.628Z,5.31
2023-02-11T06:15:57.134Z,5.36
2023-02-11T06:18:58.439Z,5.28
2023-02-11T06:22:01.018Z,5.38
2023-02-11T06:25:04.617Z,5.37
2023-02-11T06:28:06.024Z,5.44
2023-02-11T06:31:10.195Z,5.43
2023-02-11T06:34:12.859Z,5.42
2023-02-11T06:37:14.188Z,5.35
2023-02-11T06:40:17.588Z,5.49
2023-02-11T06:43:18.920Z,5.54
2023-02-11T06:46:21.556Z,5.55
2023-02-11T06:49:24.101Z,5.51
2023-02-11T06:52:25.488Z,5.44
2023-02-11T06:55:28.988Z,5.58
2023-02-11T06:58:30.282Z,5.59
2023-02-11T07:01:33.084Z,5.82
2023-02-11T07:04:34.393Z,5.79
2023-02-11T07:07:37.196Z,5.76
2023-02-11T07:10:40.635Z,5.90
2023-02-11T07:13:42.605Z,5.90
2023-02-11T07:16:45.243Z,5.97
2023-02-11T07:19:46.538Z,6.09
2023-02-11T07:22:49.102Z,6.05
2023-02-11T07:25:51.245Z,6.13
2023-02-11T07:28:54.316Z,6.20
2023-02-11T07:31:56.837Z,6.16
2023-02-11T07:34:58.402Z,6.30
2023-02-11T07:38:00.909Z,6.34
2023-02-11T07:41:04.373Z,6.35
2023-02-11T07:44:07.526Z,6.33
2023-02-11T07:47:10.038Z,6.43
2023-02-11T07:50:11.330Z,6.38
2023-02-11T07:53:15.767Z,6.47
2023-02-11T07:56:20.978Z,6.45
2023-02-11T07:59:24.092Z,6.48
2023-02-11T08:02:26.779Z,6.44
2023-02-11T08:05:28.067Z,6.38
2023-02-11T08:08:30.609Z,6.53
2023-02-11T08:11:33.958Z,6.64
2023-02-11T08:14:35.475Z,6.66
2023-02-11T08:17:38.054Z,6.64
2023-02-11T08:20:39.372Z,6.71
2023-02-11T08:23:43.774Z,6.64
2023-02-11T08:26:45.728Z,6.59
2023-02-11T08:29:48.312Z,6.71
2023-02-11T08:32:50.861Z,6.65
2023-02-11T08:35:52.249Z,6.74
2023-02-11T08:39:05.671Z,6.65
2023-02-11T08:42:16.242Z,6.60
2023-02-11T08:45:17.660Z,6.60
2023-02-11T08:48:20.208Z,6.64
2023-02-11T08:51:23.512Z,6.53
2023-02-11T08:54:26.150Z,6.62
2023-02-11T08:57:29.412Z,6.48
2023-02-11T09:00:31.230Z,6.58
2023-02-11T09:03:33.878Z,6.67
2023-02-11T09:06:35.184Z,6.68
2023-02-11T09:09:37.842Z,6.60
2023-02-11T09:12:39.931Z,6.61
2023-02-11T09:15:46.039Z,6.52
2023-02-11T09:18:49.526Z,6.62
2023-02-11T09:21:50.874Z,6.60
2023-02-11T09:24:53.506Z,6.62
2023-02-11T09:27:56.789Z,6.67
2023-02-11T09:30:58.180Z,6.62
2023-02-11T09:34:03.148Z,6.69
2023-02-11T09:37:04.420Z,6.78
2023-02-11T09:40:07.787Z,6.84
2023-02-11T09:43:16.185Z,6.82
2023-02-11T09:46:19.377Z,6.80
2023-02-11T09:49:26.847Z,6.85
2023-02-11T09:52:37.016Z,6.77
2023-02-11T09:55:43.588Z,6.78
2023-02-11T09:58:46.435Z,6.84
2023-02-11T10:01:54.295Z,6.96
2023-02-11T10:05:26.960Z,6.93
2023-02-11T10:08:34.590Z,6.93
2023-02-11T10:11:47.045Z,6.98
2023-02-11T10:15:04.488Z,6.91
2023-02-11T10:18:34.205Z,6.97
2023-02-11T10:21:47.145Z,7.12
2023-02-11T10:24:52.300Z,7.12
2023-02-11T10:27:59.905Z,7.02
2023-02-11T10:31:07.815Z,7.05
2023-02-11T10:34:10.711Z,7.12
2023-02-11T10:37:14.775Z,7.21
2023-02-11T10:40:18.243Z,7.24
2023-02-11T10:43:25.099Z,7.31
2023-02-11T10:46:32.133Z,7.35
2023-02-11T10:53:20.951Z,7.22
2023-02-11T10:56:26.823Z,7.20
2023-02-11T10:59:32.215Z,7.33
2023-02-11T11:02:38.036Z,7.20
2023-02-11T11:05:49.440Z,7.19
2023-02-11T11:08:52.767Z,7.24
2023-02-11T11:11:55.274Z,7.25
2023-02-11T11:14:58.965Z,7.18
2023-02-11T11:18:21.934Z,7.24
2023-02-11T11:21:25.696Z,7.24
2023-02-11T11:24:30.887Z,7.24
2023-02-11T11:27:32.539Z,7.14
2023-02-11T11:30:42.421Z,7.23
2023-02-11T11:33:46.475Z,7.33
2023-02-11T11:36:50.795Z,7.33
2023-02-11T11:39:56.844Z,7.39
2023-02-11T11:43:15.905Z,7.46
2023-02-11T11:46:23.596Z,7.50
2023-02-11T11:49:33.764Z,7.45
2023-02-11T11:52:45.921Z,7.47
2023-02-11T11:55:59.669Z,7.48
2023-02-11T11:59:10.039Z,7.63
2023-02-11T12:02:46.406Z,7.65
2023-02-11T12:05:59.836Z,7.78
2023-02-11T12:09:10.733Z,7.76
2023-02-11T12:12:27.158Z,7.65
2023-02-11T12:15:36.944Z,7.88
2023-02-11T12:19:04.742Z,7.80
2023-02-11T12:22:12.084Z,7.94
2023-02-11T12:25:25.438Z,7.88
2023-02-11T12:28:41.656Z,7.97
2023-02-11T12:31:56.040Z,7.93
2023-02-11T12:39:02.972Z,8.09
2023-02-11T12:42:46.152Z,7.92
2023-02-11T12:46:12.766Z,8.05
2023-02-11T12:49:40.926Z,8.16
2023-02-11T12:53:00.786Z,8.07
2023-02-11T12:56:07.854Z,8.09
2023-02-11T13:02:46.853Z,8.07
2023-02-11T13:05:52.285Z,7.99
2023-02-11T13:09:00.783Z,8.14
2023-02-11T13:12:27.950Z,8.14
2023-02-11T13:15:31.703Z,8.10
2023-02-11T13:18:44.757Z,8.11
2023-02-11T13:22:09.937Z,8.10
2023-02-11T13:25:21.334Z,8.05
2023-02-11T13:28:36.982Z,8.43
2023-02-11T13:31:38.511Z,8.04
2023-02-11T13:35:00.251Z,8.17
2023-02-11T13:38:03.272Z,8.27
2023-02-11T13:41:21.293Z,8.18
2023-02-11T13:44:27.549Z,8.06
2023-02-11T13:47:31.207Z,8.17
2023-02-11T13:50:38.993Z,8.16
2023-02-11T13:53:48.813Z,8.14
2023-02-11T13:57:24.563Z,8.01
2023-02-11T14:00:47.861Z,8.08
2023-02-11T14:04:48.801Z,8.21
2023-02-11T14:08:38.788Z,8.11
2023-02-11T14:11:49.546Z,8.11
2023-02-11T14:15:20.578Z,8.21
2023-02-11T14:18:38.577Z,8.19
2023-02-11T14:21:44.188Z,8.09
2023-02-11T14:24:50.241Z,8.12
2023-02-11T14:27:57.559Z,8.16
2023-02-11T14:31:07.159Z,8.09
2023-02-11T14:34:31.415Z,8.14
2023-02-11T14:37:50.444Z,8.09
2023-02-11T14:41:00.957Z,8.02
2023-02-11T14:44:07.195Z,8.04
2023-02-11T14:47:18.233Z,8.17
2023-02-11T14:50:24.715Z,8.03
2023-02-11T14:53:31.371Z,8.03
2023-02-11T14:56:33.699Z,8.13
2023-02-11T14:59:36.757Z,8.04
2023-02-11T15:02:38.817Z,7.91
2023-02-11T15:05:42.069Z,7.81
2023-02-11T15:08:46.762Z,8.04
2023-02-11T15:11:51.491Z,7.93
2023-02-11T15:14:55.034Z,8.08
2023-02-11T15:18:00.549Z,8.12
2023-02-11T15:21:02.929Z,7.96
2023-02-11T15:24:07.655Z,7.96
2023-02-11T15:27:14.055Z,8.13
2023-02-11T15:30:29.062Z,8.02
2023-02-11T15:33:31.896Z,7.95
2023-02-11T15:36:35.493Z,7.92
2023-02-11T15:39:40.263Z,7.93
2023-02-11T15:42:57.390Z,8.06
2023-02-11T15:46:03.005Z,8.04
2023-02-11T15:49:04.753Z,7.99
2023-02-11T15:52:09.074Z,8.03
2023-02-11T15:55:14.710Z,8.15
2023-02-11T15:58:17.388Z,7.97
2023-02-11T16:01:20.139Z,7.93
2023-02-11T16:04:24.014Z,8.02
2023-02-11T16:07:42.052Z,8.06
2023-02-11T16:10:57.476Z,7.98
2023-02-11T16:14:01.557Z,8.01
2023-02-11T16:17:07.875Z,8.03
2023-02-11T16:20:18.091Z,8.05
2023-02-11T16:23:25.042Z,8.04
2023-02-11T16:26:30.858Z,8.10
2023-02-11T16:29:36.680Z,7.96
2023-02-11T16:32:38.204Z,8.01
2023-02-11T16:35:40.947Z,7.98
2023-02-11T16:38:42.901Z,8.09
2023-02-11T16:41:45.624Z,8.03
2023-02-11T16:44:46.906Z,7.96
2023-02-11T16:47:49.546Z,8.13
2023-02-11T16:50:53.452Z,8.03
2023-02-11T16:53:55.619Z,8.10
2023-02-11T16:56:58.400Z,8.13
2023-02-11T16:59:59.648Z,7.98
2023-02-11T17:03:02.201Z,8.04
2023-02-11T17:06:06.303Z,8.10
2023-02-11T17:09:15.102Z,8.01
2023-02-11T17:12:17.621Z,8.15
2023-02-11T17:15:18.919Z,8.01
2023-02-11T17:18:21.507Z,8.03
2023-02-11T17:21:28.755Z,8.08
2023-02-11T17:24:32.052Z,8.11
2023-02-11T17:27:34.936Z,8.06
2023-02-11T17:30:38.406Z,8.05
2023-02-11T17:33:41.062Z,8.16
2023-02-11T17:40:04.679Z,8.07
2023-02-11T17:43:07.280Z,8.11
2023-02-11T17:46:09.266Z,8.17
2023-02-11T17:49:12.212Z,8.08
2023-02-11T17:52:13.476Z,8.08
2023-02-11T17:55:15.519Z,8.14
2023-02-11T17:58:18.083Z,8.07
2023-02-11T18:01:19.607Z,7.98
2023-02-11T18:04:22.443Z,8.05
2023-02-11T18:07:25.824Z,8.09
2023-02-11T18:10:27.998Z,8.09
2023-02-11T18:13:30.930Z,8.06
2023-02-11T18:16:34.177Z,8.09
2023-02-11T18:19:38.042Z,8.06
2023-02-11T18:22:40.228Z,8.09
2023-02-11T18:25:43.437Z,8.09
2023-02-11T18:28:46.521Z,8.18
2023-02-11T18:31:49.108Z,8.11
2023-02-11T18:34:51.658Z,8.18
2023-02-11T18:37:54.246Z,8.09
2023-02-11T18:40:57.936Z,8.09
2023-02-11T18:44:03.470Z,8.17
2023-02-11T18:47:04.830Z,8.14
2023-02-11T18:50:09.829Z,8.15
2023-02-11T18:53:14.181Z,8.15
2023-02-11T18:56:18.540Z,8.20
2023-02-11T18:59:21.094Z,8.13
2023-02-11T19:02:24.077Z,8.10
2023-02-11T19:08:50.198Z,8.08
2023-02-11T19:11:53.345Z,8.04
2023-02-11T19:14:55.854Z,8.06
2023-02-11T19:17:57.109Z,8.13
2023-02-11T19:20:59.678Z,8.09
2023-02-11T19:24:07.538Z,7.98
2023-02-11T19:27:10.043Z,8.01
2023-02-11T19:30:13.339Z,8.04
2023-02-11T19:33:14.628Z,8.09
2023-02-11T19:36:17.765Z,8.08
2023-02-11T19:39:20.281Z,8.09
2023-02-11T19:42:22.237Z,8.09
2023-02-11T19:45:24.833Z,8.10
2023-02-11T19:48:26.087Z,8.04
2023-02-11T19:51:28.879Z,8.00
2023-02-11T19:54:31.390Z,8.04
2023-02-11T19:57:33.357Z,7.98
2023-02-11T20:00:35.874Z,7.97
2023-02-11T20:03:40.789Z,8.01
2023-02-11T20:06:45.470Z,7.94
2023-02-11T20:09:46.795Z,7.94
2023-02-11T20:12:50.171Z,8.02
2023-02-11T20:19:16.822Z,7.91
2023-02-11T20:22:19.416Z,7.94
2023-02-11T20:25:21.979Z,7.88
2023-02-11T20:28:23.962Z,7.92
2023-02-11T20:31:26.633Z,7.88
2023-02-11T20:34:28.640Z,7.98
2023-02-11T20:37:33.510Z,7.93
2023-02-11T20:40:34.806Z,7.87
2023-02-11T20:43:38.356Z,7.80
2023-02-11T20:46:43.584Z,7.75
2023-02-11T20:49:44.946Z,7.74
2023-02-11T20:52:48.893Z,7.86
2023-02-11T20:55:50.445Z,7.91
2023-02-11T20:58:57.427Z,7.87
2023-02-11T21:05:21.298Z,7.73
2023-02-11T21:08:23.917Z,7.75
2023-02-11T21:11:25.186Z,7.61
2023-02-11T21:14:28.675Z,7.64
2023-02-11T21:17:31.189Z,7.66
2023-02-11T21:20:32.502Z,7.68
2023-02-11T21:23:36.210Z,7.67
2023-02-11T21:26:38.233Z,7.72
2023-02-11T21:29:53.446Z,7.68
2023-02-11T21:32:58.546Z,7.69
2023-02-11T21:36:01.742Z,7.63
2023-02-11T21:39:04.676Z,7.72
2023-02-11T21:42:06.001Z,7.68
2023-02-11T21:45:10.567Z,7.67
2023-02-11T21:48:12.633Z,7.76
2023-02-11T21:51:17.616Z,7.75
2023-02-11T21:54:20.596Z,7.74
2023-02-11T21:57:21.898Z,7.76
2023-02-11T22:00:25.467Z,7.77
2023-02-11T22:03:28.611Z,7.76
2023-02-11T22:06:34.134Z,7.73
2023-02-11T22:09:38.988Z,7.67
2023-02-11T22:12:40.324Z,7.59
2023-02-11T22:15:43.514Z,7.75
2023-02-11T22:18:45.544Z,7.69
2023-02-11T22:21:48.069Z,7.68
2023-02-11T22:24:50.829Z,7.72
2023-02-11T22:27:52.154Z,7.65
2023-02-11T22:30:56.348Z,7.68
2023-02-11T22:33:59.828Z,7.63
2023-02-11T22:37:01.899Z,7.73
2023-02-11T22:40:04.849Z,7.67
2023-02-11T22:43:06.184Z,7.66
2023-02-11T22:46:09.715Z,7.67
2023-02-11T22:49:15.091Z,7.67
2023-02-11T22:52:16.539Z,7.71
2023-02-11T22:55:19.102Z,7.74
2023-02-11T22:58:20.398Z,7.68
2023-02-11T23:01:23.598Z,7.65
2023-02-11T23:04:24.860Z,7.61
2023-02-11T23:07:27.378Z,7.58
2023-02-11T23:10:30.251Z,7.59
2023-02-11T23:13:34.535Z,7.62
2023-02-11T23:16:37.793Z,7.66
2023-02-11T23:19:39.241Z,7.69
2023-02-11T23:22:41.780Z,7.72
2023-02-11T23:25:43.728Z,7.72
2023-02-11T23:28:46.936Z,7.65
2023-02-11T23:31:50.617Z,7.56
2023-02-11T23:34:52.251Z,7.64
2023-02-11T23:37:54.922Z,7.63
2023-02-11T23:44:17.122Z,7.54
2023-02-11T23:47:19.116Z,7.53
2023-02-11T23:50:21.810Z,7.51
2023-02-11T23:53:24.330Z,7.59
2023-02-11T23:56:27.119Z,7.54
2023-02-11T23:59:29.662Z,7.49
